Time;durP1;ratioP1;P1;durP2;ratioP2;P2;SDS_P1;SDS_P2;PMS_P1;PMS_P2;Temp;Humidity;BMP_temperature;BMP_pressure;BME280_temperature;BME280_humidity;BME280_pressure;Samples;Min_cycle;Max_cycle;Signal;HPM_P1;HPM_P2
2021/01/27 00:02:06;;;;;;;13.53;9.30;;;;;;;;;;5039199;28;20239;-63
2021/01/27 00:04:31;;;;;;;13.60;9.17;;;;;;;;;;5039629;28;20240;-64
2021/01/27 00:06:56;;;;;;;16.57;8.60;;;;;;;;;;5040005;28;20552;-63
2021/01/27 00:09:21;;;;;;;12.43;10.93;;;;;;;;;;5033591;28;20212;-63
2021/01/27 00:11:47;;;;;;;12.37;8.67;;;;;;;;;;5067193;28;20221;-63
2021/01/27 00:14:12;;;;;;;18.10;10.10;;;;;;;;;;5038566;28;20312;-64
2021/01/27 00:16:37;;;;;;;12.90;8.43;;;;;;;;;;5038083;28;20220;-63
2021/01/27 00:19:25;;;;;;;11.93;9.00;;;;;;;;;;5039760;28;20234;-64
2021/01/27 00:21:51;;;;;;;12.93;10.03;;;;;;;;;;5071385;28;20254;-63
2021/01/27 00:24:16;;;;;;;15.63;10.10;;;;;;;;;;5039741;28;20538;-63
2021/01/27 00:26:41;;;;;;;17.20;11.53;;;;;;;;;;5039068;28;20559;-63
2021/01/27 00:29:06;;;;;;;16.40;11.37;;;;;;;;;;5039263;28;20224;-63
2021/01/27 00:31:32;;;;;;;15.93;12.57;;;;;;;;;;5039758;28;20218;-63
2021/01/27 00:34:00;;;;;;;18.97;12.30;;;;;;;;;;5039129;28;20556;-64
2021/01/27 00:36:35;;;;;;;23.30;13.17;;;;;;;;;;5029736;28;20366;-63
2021/01/27 00:39:00;;;;;;;15.90;11.50;;;;;;;;;;5030073;28;20466;-63
2021/01/27 00:41:25;;;;;;;23.60;14.67;;;;;;;;;;5037967;28;20465;-63
2021/01/27 00:43:50;;;;;;;17.07;12.93;;;;;;;;;;5038913;28;20224;-62
2021/01/27 00:46:16;;;;;;;17.80;13.20;;;;;;;;;;5038434;28;20254;-62
2021/01/27 00:48:48;;;;;;;18.33;12.70;;;;;;;;;;5038045;28;20215;-62
2021/01/27 00:51:13;;;;;;;20.60;15.10;;;;;;;;;;5037844;28;23132;-64
2021/01/27 00:53:41;;;;;;;16.07;12.10;;;;;;;;;;5038788;28;20554;-64
2021/01/27 00:56:06;;;;;;;20.27;13.60;;;;;;;;;;5038092;28;20231;-64
2021/01/27 00:58:31;;;;;;;18.47;13.40;;;;;;;;;;5037796;28;20470;-63
2021/01/27 01:00:56;;;;;;;16.67;12.57;;;;;;;;;;5038151;28;20311;-61
2021/01/27 01:03:25;;;;;;;18.07;13.50;;;;;;;;;;5038144;28;20215;-63
2021/01/27 01:05:50;;;;;;;22.27;12.73;;;;;;;;;;5038596;28;20221;-63
2021/01/27 01:08:21;;;;;;;20.10;14.13;;;;;;;;;;5037837;28;20441;-63
2021/01/27 01:10:49;;;;;;;18.30;12.47;;;;;;;;;;5046115;28;20222;-63
2021/01/27 01:13:17;;;;;;;17.87;13.73;;;;;;;;;;5039184;28;20936;-63
2021/01/27 01:15:42;;;;;;;16.90;12.47;;;;;;;;;;5038312;28;20924;-63
2021/01/27 01:18:09;;;;;;;20.50;14.80;;;;;;;;;;5038134;28;20549;-63
2021/01/27 01:20:34;;;;;;;18.00;12.60;;;;;;;;;;5038432;28;20315;-63
2021/01/27 01:23:03;;;;;;;18.80;12.33;;;;;;;;;;5038266;28;20850;-63
2021/01/27 01:25:31;;;;;;;18.77;11.53;;;;;;;;;;5037274;28;20214;-63
2021/01/27 01:27:57;;;;;;;18.60;13.20;;;;;;;;;;5037726;28;20549;-63
2021/01/27 01:30:28;;;;;;;18.87;12.70;;;;;;;;;;5037665;28;20472;-62
2021/01/27 01:32:54;;;;;;;20.80;13.60;;;;;;;;;;5038340;28;20223;-63
2021/01/27 01:35:21;;;;;;;18.33;12.83;;;;;;;;;;5037699;28;20471;-63
2021/01/27 01:37:46;;;;;;;20.67;13.77;;;;;;;;;;5037745;28;20494;-63
2021/01/27 01:40:20;;;;;;;18.93;12.60;;;;;;;;;;5037662;28;20543;-63
2021/01/27 01:42:58;;;;;;;19.63;14.47;;;;;;;;;;5037574;28;20302;-64
2021/01/27 01:45:45;;;;;;;15.40;10.83;;;;;;;;;;5037106;28;20837;-62
2021/01/27 01:48:28;;;;;;;18.33;12.83;;;;;;;;;;5029488;28;20449;-63
2021/01/27 01:51:25;;;;;;;19.63;12.40;;;;;;;;;;5038062;28;20445;-63
2021/01/27 01:53:52;;;;;;;17.43;12.00;;;;;;;;;;5032787;28;20466;-63
2021/01/27 01:56:20;;;;;;;18.37;11.70;;;;;;;;;;5038046;28;20486;-63
2021/01/27 01:58:46;;;;;;;17.47;11.87;;;;;;;;;;5037922;28;20459;-64
2021/01/27 02:01:12;;;;;;;16.17;10.83;;;;;;;;;;5037167;28;20450;-63
2021/01/27 02:03:39;;;;;;;16.50;11.70;;;;;;;;;;5037983;28;20455;-63
2021/01/27 02:06:08;;;;;;;15.73;12.10;;;;;;;;;;5036439;28;20242;-64
2021/01/27 02:08:36;;;;;;;20.03;12.23;;;;;;;;;;5037720;28;20970;-64
2021/01/27 02:11:01;;;;;;;19.27;12.00;;;;;;;;;;5036780;28;20467;-63
2021/01/27 02:13:47;;;;;;;17.10;12.50;;;;;;;;;;5038151;28;20516;-63
2021/01/27 02:16:29;;;;;;;17.80;11.63;;;;;;;;;;5036347;28;20229;-63
2021/01/27 02:19:06;;;;;;;18.97;11.87;;;;;;;;;;5036337;28;20449;-63
2021/01/27 02:22:11;;;;;;;19.13;12.80;;;;;;;;;;5037683;28;20450;-63
2021/01/27 02:24:36;;;;;;;15.10;10.57;;;;;;;;;;5070094;28;20517;-63
2021/01/27 02:27:08;;;;;;;18.23;12.13;;;;;;;;;;5037623;28;20472;-63
2021/01/27 02:29:53;;;;;;;21.10;13.70;;;;;;;;;;5036557;28;20255;-63
2021/01/27 02:32:35;;;;;;;18.87;12.27;;;;;;;;;;5036742;28;20490;-62
2021/01/27 02:35:24;;;;;;;19.13;12.00;;;;;;;;;;5036836;28;20467;-63
2021/01/27 02:37:59;;;;;;;14.33;10.90;;;;;;;;;;5036478;28;20519;-63
2021/01/27 02:40:31;;;;;;;16.60;11.93;;;;;;;;;;5039744;28;20491;-63
2021/01/27 02:43:11;;;;;;;25.57;15.00;;;;;;;;;;5014921;28;20971;-63
2021/01/27 02:45:42;;;;;;;27.57;11.67;;;;;;;;;;5041844;28;20551;-63
2021/01/27 02:48:14;;;;;;;24.70;14.10;;;;;;;;;;5053208;28;20499;-63
2021/01/27 02:50:44;;;;;;;20.03;11.53;;;;;;;;;;5043744;28;20515;-63
2021/01/27 02:53:17;;;;;;;17.40;11.57;;;;;;;;;;5038812;28;20512;-63
2021/01/27 02:56:11;;;;;;;21.37;12.13;;;;;;;;;;5039695;28;20512;-64
2021/01/27 02:58:40;;;;;;;18.03;13.20;;;;;;;;;;5031066;28;20469;-63
2021/01/27 03:01:10;;;;;;;18.00;13.33;;;;;;;;;;5039698;28;20458;-63
2021/01/27 03:03:39;;;;;;;17.60;13.70;;;;;;;;;;5039702;28;20469;-62
2021/01/27 03:06:07;;;;;;;23.73;14.60;;;;;;;;;;5040638;28;20481;-63
2021/01/27 03:08:45;;;;;;;27.90;16.33;;;;;;;;;;5039399;28;20458;-63
2021/01/27 03:11:25;;;;;;;19.63;15.17;;;;;;;;;;5039521;28;20547;-63
2021/01/27 03:13:51;;;;;;;24.03;16.50;;;;;;;;;;5038921;28;20475;-63
2021/01/27 03:16:23;;;;;;;22.87;14.13;;;;;;;;;;5040433;28;20548;-62
2021/01/27 03:19:18;;;;;;;25.17;15.43;;;;;;;;;;5039435;28;20236;-62
2021/01/27 03:21:47;;;;;;;31.80;17.03;;;;;;;;;;5039814;28;20468;-62
2021/01/27 03:24:21;;;;;;;25.63;17.30;;;;;;;;;;5040408;28;20468;-62
2021/01/27 03:26:58;;;;;;;28.65;16.65;;;;;;;;;;5039443;28;20874;-63
2021/01/27 03:29:45;;;;;;;26.45;16.20;;;;;;;;;;5040565;28;20307;-63
2021/01/27 03:32:35;;;;;;;28.10;17.40;;;;;;;;;;5038878;28;20742;-63
2021/01/27 03:35:12;;;;;;;26.35;17.67;;;;;;;;;;5029584;28;20462;-63
2021/01/27 03:37:47;;;;;;;24.77;16.70;;;;;;;;;;5038790;28;20310;-63
2021/01/27 03:40:16;;;;;;;25.60;16.70;;;;;;;;;;5038448;28;20455;-62
2021/01/27 03:42:50;;;;;;;24.20;14.93;;;;;;;;;;5038673;28;20455;-63
2021/01/27 03:45:18;;;;;;;27.20;17.33;;;;;;;;;;5038142;28;20483;-63
2021/01/27 03:47:50;;;;;;;26.40;17.10;;;;;;;;;;5038964;28;20793;-63
2021/01/27 03:50:20;;;;;;;27.00;18.10;;;;;;;;;;5038436;28;20474;-64
2021/01/27 03:52:51;;;;;;;26.88;17.52;;;;;;;;;;5038929;28;20488;-63
2021/01/27 03:55:28;;;;;;;29.13;18.50;;;;;;;;;;5038688;28;20277;-61
2021/01/27 03:58:02;;;;;;;27.73;17.93;;;;;;;;;;5039288;28;20460;-63
2021/01/27 04:00:29;;;;;;;28.90;19.80;;;;;;;;;;5037859;28;20452;-63
2021/01/27 04:03:06;;;;;;;30.80;18.77;;;;;;;;;;5039650;28;20491;-63
2021/01/27 04:05:31;;;;;;;29.27;18.50;;;;;;;;;;5039243;28;20448;-63
2021/01/27 04:07:56;;;;;;;28.80;18.10;;;;;;;;;;5040080;28;20452;-63
2021/01/27 04:10:24;;;;;;;35.13;20.07;;;;;;;;;;5039375;28;20292;-63
2021/01/27 04:12:50;;;;;;;31.07;17.53;;;;;;;;;;5038972;28;20210;-62
2021/01/27 04:15:15;;;;;;;31.77;18.80;;;;;;;;;;5038557;28;20801;-63
2021/01/27 04:17:40;;;;;;;31.03;18.90;;;;;;;;;;5039088;28;20571;-63
2021/01/27 04:20:06;;;;;;;27.33;16.87;;;;;;;;;;5038601;28;20233;-62
2021/01/27 04:22:31;;;;;;;30.13;17.50;;;;;;;;;;5038014;28;20646;-63
2021/01/27 04:24:56;;;;;;;23.63;17.20;;;;;;;;;;5038754;28;20224;-63
2021/01/27 04:27:23;;;;;;;29.63;17.40;;;;;;;;;;5037949;28;20277;-63
2021/01/27 04:29:48;;;;;;;28.00;17.80;;;;;;;;;;5038760;28;20221;-63
2021/01/27 04:32:13;;;;;;;27.03;17.37;;;;;;;;;;5038654;28;20471;-63
2021/01/27 04:34:39;;;;;;;29.50;16.83;;;;;;;;;;5038373;28;20304;-63
2021/01/27 04:37:04;;;;;;;29.50;18.33;;;;;;;;;;5039014;28;20240;-63
2021/01/27 04:39:30;;;;;;;26.63;18.30;;;;;;;;;;5039107;28;20217;-63
2021/01/27 04:41:55;;;;;;;32.03;20.13;;;;;;;;;;5039448;28;20278;-63
2021/01/27 04:44:21;;;;;;;30.77;19.20;;;;;;;;;;5038011;28;20725;-63
2021/01/27 04:47:06;;;;;;;30.70;20.70;;;;;;;;;;5037643;28;20241;-63
2021/01/27 04:49:37;;;;;;;28.45;20.40;;;;;;;;;;5037778;28;20488;-63
2021/01/27 04:52:15;;;;;;;28.37;17.93;;;;;;;;;;5021478;28;20269;-64
2021/01/27 04:55:14;;;;;;;33.27;20.10;;;;;;;;;;5037988;28;20443;-63
2021/01/27 04:58:04;;;;;;;26.17;17.03;;;;;;;;;;5038728;28;20458;-63
2021/01/27 05:00:44;;;;;;;33.03;19.05;;;;;;;;;;5021899;28;20778;-64
2021/01/27 05:03:20;;;;;;;29.77;19.50;;;;;;;;;;5040292;28;20229;-65
2021/01/27 05:05:53;;;;;;;21.33;14.10;;;;;;;;;;5035411;28;20446;-63
2021/01/27 05:08:23;;;;;;;23.93;16.30;;;;;;;;;;5031229;28;20221;-64
2021/01/27 05:10:59;;;;;;;25.80;15.27;;;;;;;;;;5055514;28;20459;-63
2021/01/27 05:13:40;;;;;;;24.53;15.90;;;;;;;;;;5029997;28;20526;-62
2021/01/27 05:16:08;;;;;;;32.07;20.17;;;;;;;;;;5046614;28;20468;-65
2021/01/27 05:18:33;;;;;;;29.47;18.40;;;;;;;;;;5045234;28;20460;-63
2021/01/27 05:20:58;;;;;;;29.10;18.47;;;;;;;;;;5044289;28;20483;-63
2021/01/27 05:23:24;;;;;;;32.97;18.80;;;;;;;;;;5055042;28;20231;-63
2021/01/27 05:26:04;;;;;;;35.97;20.47;;;;;;;;;;5044120;28;20221;-63
2021/01/27 05:28:43;;;;;;;34.80;20.63;;;;;;;;;;5047540;28;20318;-63
2021/01/27 05:31:08;;;;;;;36.97;20.70;;;;;;;;;;5050361;28;20466;-62
2021/01/27 05:33:48;;;;;;;28.03;18.83;;;;;;;;;;5049373;28;20460;-62
2021/01/27 05:36:24;;;;;;;28.53;19.30;;;;;;;;;;5030391;28;20226;-63
2021/01/27 05:38:50;;;;;;;39.40;20.80;;;;;;;;;;5041923;28;20459;-62
2021/01/27 05:41:25;;;;;;;30.47;20.13;;;;;;;;;;5044369;28;20466;-63
2021/01/27 05:43:52;;;;;;;35.17;22.07;;;;;;;;;;5043304;28;20228;-62
2021/01/27 05:46:29;;;;;;;50.37;24.07;;;;;;;;;;5049968;28;20469;-63
2021/01/27 05:48:54;;;;;;;33.13;21.33;;;;;;;;;;5050622;28;20527;-63
2021/01/27 05:51:46;;;;;;;33.00;21.73;;;;;;;;;;5046131;28;20467;-63
2021/01/27 05:54:22;;;;;;;36.53;22.87;;;;;;;;;;5038377;28;20235;-63
2021/01/27 05:56:47;;;;;;;49.97;27.10;;;;;;;;;;5043286;28;20474;-64
2021/01/27 05:59:22;;;;;;;41.73;24.70;;;;;;;;;;5049212;28;20458;-63
2021/01/27 06:01:49;;;;;;;47.20;27.20;;;;;;;;;;5048640;28;20250;-63
2021/01/27 06:04:18;;;;;;;44.57;26.77;;;;;;;;;;5041679;28;20485;-64
2021/01/27 06:06:49;;;;;;;45.60;25.30;;;;;;;;;;5038567;28;20459;-63
2021/01/27 06:09:29;;;;;;;39.47;23.37;;;;;;;;;;5046720;28;20453;-63
2021/01/27 06:12:06;;;;;;;36.83;22.73;;;;;;;;;;5028331;28;20473;-63
2021/01/27 06:14:32;;;;;;;37.50;24.00;;;;;;;;;;5044161;28;21060;-63
2021/01/27 06:17:14;;;;;;;39.80;24.40;;;;;;;;;;5052921;28;20534;-64
2021/01/27 06:19:39;;;;;;;35.93;21.87;;;;;;;;;;5052702;28;20220;-64
2021/01/27 06:22:41;;;;;;;41.20;25.67;;;;;;;;;;5049154;28;20551;-64
2021/01/27 06:25:40;;;;;;;38.60;23.83;;;;;;;;;;5016313;28;20679;-63
2021/01/27 06:28:19;;;;;;;41.93;26.30;;;;;;;;;;5046825;28;20959;-63
2021/01/27 06:31:08;;;;;;;41.07;26.73;;;;;;;;;;5047474;28;20460;-64
2021/01/27 06:34:08;;;;;;;36.00;24.10;;;;;;;;;;5036613;28;20470;-64
2021/01/27 06:37:01;;;;;;;38.17;23.07;;;;;;;;;;5033444;28;20477;-64
2021/01/27 06:39:51;;;;;;;36.40;23.03;;;;;;;;;;5045182;28;20488;-64
2021/01/27 06:42:39;;;;;;;38.30;23.20;;;;;;;;;;5045238;28;20469;-64
2021/01/27 06:45:24;;;;;;;33.60;22.20;;;;;;;;;;5056548;28;20675;-64
2021/01/27 06:47:58;;;;;;;46.47;25.00;;;;;;;;;;5059277;28;21007;-64
2021/01/27 06:50:59;;;;;;;34.17;21.77;;;;;;;;;;5045608;28;20441;-64
2021/01/27 06:53:58;;;;;;;27.83;20.30;;;;;;;;;;5041175;28;20817;-64
2021/01/27 06:56:45;;;;;;;30.17;19.90;;;;;;;;;;5031749;28;20464;-64
2021/01/27 06:59:22;;;;;;;32.50;20.03;;;;;;;;;;5044069;28;20455;-64
2021/01/27 07:02:09;;;;;;;30.07;18.70;;;;;;;;;;5045351;28;20485;-64
2021/01/27 07:04:57;;;;;;;34.37;21.90;;;;;;;;;;5047602;28;21275;-64
2021/01/27 07:07:25;;;;;;;31.63;21.70;;;;;;;;;;5043390;28;20465;-65
2021/01/27 07:10:02;;;;;;;30.40;19.30;;;;;;;;;;5045949;28;20457;-65
2021/01/27 07:12:36;;;;;;;26.77;18.93;;;;;;;;;;5044413;28;20474;-65
2021/01/27 07:15:13;;;;;;;30.10;19.83;;;;;;;;;;5041988;28;20475;-65
2021/01/27 07:18:10;;;;;;;29.27;19.60;;;;;;;;;;5053082;28;20447;-65
2021/01/27 07:20:39;;;;;;;29.83;21.30;;;;;;;;;;5044813;28;20471;-65
2021/01/27 07:23:16;;;;;;;33.83;20.53;;;;;;;;;;5051160;28;20448;-65
2021/01/27 07:26:00;;;;;;;38.77;24.57;;;;;;;;;;5051620;28;20747;-66
2021/01/27 07:28:37;;;;;;;32.60;21.70;;;;;;;;;;5047371;28;20532;-65
2021/01/27 07:31:20;;;;;;;33.23;20.80;;;;;;;;;;5043937;28;20541;-65
2021/01/27 07:34:07;;;;;;;31.40;20.80;;;;;;;;;;5045109;28;20467;-65
2021/01/27 07:36:48;;;;;;;33.30;20.40;;;;;;;;;;5035738;28;20474;-63
2021/01/27 07:39:43;;;;;;;32.40;21.70;;;;;;;;;;5043262;28;20464;-64
2021/01/27 07:42:23;;;;;;;29.10;20.33;;;;;;;;;;5043481;28;20466;-65
2021/01/27 07:44:53;;;;;;;32.50;21.23;;;;;;;;;;5049225;28;20759;-64
2021/01/27 07:47:28;;;;;;;28.97;21.50;;;;;;;;;;5044055;28;21019;-65
2021/01/27 07:49:57;;;;;;;48.83;21.70;;;;;;;;;;5057368;28;20778;-65
2021/01/27 07:52:30;;;;;;;28.70;21.60;;;;;;;;;;5043716;28;20462;-65
2021/01/27 07:55:05;;;;;;;26.10;19.30;;;;;;;;;;5045262;28;20558;-65
2021/01/27 07:57:36;;;;;;;29.37;18.90;;;;;;;;;;5051113;28;20448;-64
2021/01/27 08:00:06;;;;;;;34.80;22.57;;;;;;;;;;5050013;28;20950;-65
2021/01/27 08:02:37;;;;;;;26.30;19.10;;;;;;;;;;5031717;28;20462;-64
2021/01/27 08:05:08;;;;;;;27.90;20.87;;;;;;;;;;5044306;28;20462;-65
2021/01/27 08:07:39;;;;;;;30.70;20.43;;;;;;;;;;5047249;28;20763;-64
2021/01/27 08:10:07;;;;;;;27.23;19.60;;;;;;;;;;5033193;28;20551;-65
2021/01/27 08:12:40;;;;;;;35.00;22.80;;;;;;;;;;5045631;28;20447;-64
2021/01/27 08:15:14;;;;;;;31.67;19.63;;;;;;;;;;5023914;28;20856;-65
2021/01/27 08:17:59;;;;;;;26.90;18.97;;;;;;;;;;5050253;28;20916;-63
2021/01/27 08:20:34;;;;;;;32.30;21.40;;;;;;;;;;5044565;28;20450;-64
2021/01/27 08:23:09;;;;;;;32.97;19.87;;;;;;;;;;5048715;28;20460;-64
2021/01/27 08:26:01;;;;;;;32.00;18.80;;;;;;;;;;5031572;28;20564;-63
2021/01/27 08:28:32;;;;;;;25.73;19.10;;;;;;;;;;5046207;28;20783;-64
2021/01/27 08:31:06;;;;;;;28.27;20.07;;;;;;;;;;5042403;28;20541;-64
2021/01/27 08:33:44;;;;;;;29.20;20.10;;;;;;;;;;5042513;28;20459;-62
2021/01/27 08:36:31;;;;;;;29.33;20.00;;;;;;;;;;5030609;28;20474;-65
2021/01/27 08:38:56;;;;;;;27.80;19.47;;;;;;;;;;5044354;28;20444;-65
2021/01/27 08:41:52;;;;;;;23.10;17.17;;;;;;;;;;5046773;28;20464;-65
2021/01/27 08:44:20;;;;;;;24.70;18.30;;;;;;;;;;5035003;28;20320;-66
2021/01/27 08:50:52;;;;;;;24.33;18.47;;;;;;;;;;5041576;28;20490;-64
2021/01/27 08:54:09;;;;;;;25.10;18.17;;;;;;;;;;5028254;28;20476;-69
2021/01/27 08:57:10;;;;;;;28.17;20.90;;;;;;;;;;5031209;28;20528;-63
2021/01/27 08:59:51;;;;;;;26.67;20.53;;;;;;;;;;5016028;28;20457;-62
2021/01/27 09:02:59;;;;;;;31.40;23.47;;;;;;;;;;5015340;28;20465;-63
2021/01/27 09:05:24;;;;;;;26.23;19.70;;;;;;;;;;5009620;28;20467;-65
2021/01/27 09:08:06;;;;;;;28.60;19.90;;;;;;;;;;5042380;28;20788;-64
2021/01/27 09:10:38;;;;;;;30.83;20.63;;;;;;;;;;5046975;28;20580;-65
2021/01/27 09:13:30;;;;;;;29.43;20.83;;;;;;;;;;5055263;28;20466;-65
2021/01/27 09:16:11;;;;;;;25.13;18.60;;;;;;;;;;5032170;28;20483;-65
2021/01/27 09:18:37;;;;;;;28.83;20.90;;;;;;;;;;5049197;28;20460;-64
2021/01/27 09:21:06;;;;;;;27.50;20.80;;;;;;;;;;5041599;28;20481;-64
2021/01/27 09:23:32;;;;;;;28.63;20.80;;;;;;;;;;5045197;28;20225;-65
2021/01/27 09:26:00;;;;;;;32.60;19.83;;;;;;;;;;5049147;28;20475;-65
2021/01/27 09:28:26;;;;;;;28.03;20.03;;;;;;;;;;5045748;28;20226;-65
2021/01/27 09:30:53;;;;;;;29.90;21.53;;;;;;;;;;5043393;28;20970;-65
2021/01/27 09:33:33;;;;;;;32.93;22.40;;;;;;;;;;5046405;28;20233;-65
2021/01/27 09:36:13;;;;;;;26.20;19.17;;;;;;;;;;5048658;28;20477;-65
2021/01/27 09:38:39;;;;;;;27.90;22.30;;;;;;;;;;5043371;28;20857;-65
2021/01/27 09:41:08;;;;;;;25.63;19.77;;;;;;;;;;5041531;28;20496;-64
2021/01/27 09:43:36;;;;;;;24.57;19.27;;;;;;;;;;5042009;28;20279;-65
2021/01/27 09:46:16;;;;;;;33.33;21.37;;;;;;;;;;5043399;28;20470;-64
2021/01/27 09:48:41;;;;;;;25.43;18.70;;;;;;;;;;5052326;28;20506;-64
2021/01/27 09:51:06;;;;;;;25.73;21.00;;;;;;;;;;5047587;28;20570;-64
2021/01/27 09:53:36;;;;;;;26.67;20.47;;;;;;;;;;5044521;28;20230;-65
2021/01/27 09:56:02;;;;;;;23.67;18.40;;;;;;;;;;5049985;28;20256;-66
2021/01/27 09:58:28;;;;;;;24.43;19.10;;;;;;;;;;5051313;28;20475;-64
2021/01/27 10:01:00;;;;;;;24.90;19.80;;;;;;;;;;5038883;28;20464;-65
2021/01/27 10:03:25;;;;;;;27.20;20.40;;;;;;;;;;5051542;28;20239;-65
2021/01/27 10:05:50;;;;;;;30.23;20.15;;;;;;;;;;5038961;28;20548;-64
2021/01/27 10:08:18;;;;;;;26.07;19.90;;;;;;;;;;5051630;28;20547;-64
2021/01/27 10:10:43;;;;;;;28.37;19.10;;;;;;;;;;5042962;28;20223;-64
2021/01/27 10:13:10;;;;;;;23.50;18.40;;;;;;;;;;5051750;28;20471;-64
2021/01/27 10:15:35;;;;;;;27.43;20.53;;;;;;;;;;5036618;28;20307;-65
2021/01/27 10:18:04;;;;;;;26.10;19.27;;;;;;;;;;5051877;28;20460;-65
2021/01/27 10:20:32;;;;;;;25.03;19.93;;;;;;;;;;5049877;28;21037;-66
2021/01/27 10:23:07;;;;;;;23.87;19.87;;;;;;;;;;5043177;28;20529;-63
2021/01/27 10:25:38;;;;;;;23.00;18.10;;;;;;;;;;5044304;28;20490;-64
2021/01/27 10:28:23;;;;;;;25.27;18.13;;;;;;;;;;5044827;28;20455;-65
2021/01/27 10:30:57;;;;;;;23.27;17.97;;;;;;;;;;5041086;28;20461;-65
2021/01/27 10:33:43;;;;;;;23.47;18.07;;;;;;;;;;5045739;28;20465;-65
2021/01/27 10:36:28;;;;;;;25.97;19.23;;;;;;;;;;5047469;28;20462;-65
2021/01/27 10:39:10;;;;;;;26.57;18.93;;;;;;;;;;5040169;28;20547;-65
2021/01/27 10:41:35;;;;;;;22.50;18.87;;;;;;;;;;5043763;28;20484;-65
2021/01/27 10:44:20;;;;;;;19.70;17.00;;;;;;;;;;5046545;28;20559;-65
2021/01/27 10:46:45;;;;;;;24.17;17.80;;;;;;;;;;5037890;28;20239;-65
2021/01/27 10:49:11;;;;;;;23.10;17.83;;;;;;;;;;5050622;28;20535;-65
2021/01/27 10:51:36;;;;;;;24.70;19.00;;;;;;;;;;5049251;28;20230;-65
2021/01/27 10:54:02;;;;;;;26.23;18.90;;;;;;;;;;5043967;28;20565;-63
2021/01/27 10:56:27;;;;;;;20.00;17.30;;;;;;;;;;5046722;28;20288;-64
2021/01/27 10:58:52;;;;;;;22.00;16.20;;;;;;;;;;5050447;28;20233;-64
2021/01/27 11:01:17;;;;;;;23.03;17.33;;;;;;;;;;5047173;28;20279;-64
2021/01/27 11:03:43;;;;;;;23.60;17.30;;;;;;;;;;5044383;28;20225;-64
2021/01/27 11:06:08;;;;;;;21.37;17.57;;;;;;;;;;5047720;28;20382;-64
2021/01/27 11:08:35;;;;;;;22.80;16.83;;;;;;;;;;5050742;28;20563;-64
2021/01/27 11:11:02;;;;;;;21.50;17.43;;;;;;;;;;5038479;28;20666;-64
2021/01/27 11:13:28;;;;;;;23.80;18.37;;;;;;;;;;5050552;28;20536;-64
2021/01/27 11:15:53;;;;;;;20.67;16.97;;;;;;;;;;5036379;28;20489;-64
2021/01/27 11:18:19;;;;;;;20.40;16.23;;;;;;;;;;5044820;28;20654;-65
2021/01/27 11:20:45;;;;;;;21.30;16.37;;;;;;;;;;5043821;28;20223;-65
2021/01/27 11:23:11;;;;;;;23.83;16.97;;;;;;;;;;5049512;28;20231;-64
2021/01/27 11:25:36;;;;;;;22.87;16.60;;;;;;;;;;5050822;28;20468;-64
2021/01/27 11:28:02;;;;;;;23.57;17.87;;;;;;;;;;5043844;28;20298;-64
2021/01/27 11:30:28;;;;;;;21.47;15.43;;;;;;;;;;5043705;28;20234;-64
2021/01/27 11:32:54;;;;;;;17.00;14.73;;;;;;;;;;5049858;28;20218;-64
2021/01/27 11:35:20;;;;;;;17.60;14.50;;;;;;;;;;5051037;28;20467;-65
2021/01/27 11:37:46;;;;;;;17.43;13.43;;;;;;;;;;5045066;28;20218;-66
2021/01/27 11:40:15;;;;;;;18.80;13.50;;;;;;;;;;5043642;28;20444;-66
2021/01/27 11:42:40;;;;;;;16.93;13.80;;;;;;;;;;5050203;28;20534;-64
2021/01/27 11:45:07;;;;;;;13.97;12.03;;;;;;;;;;5044586;28;20448;-65
2021/01/27 11:47:34;;;;;;;19.17;13.57;;;;;;;;;;5051443;28;20218;-65
2021/01/27 11:50:19;;;;;;;14.47;10.70;;;;;;;;;;5043958;28;20539;-69
2021/01/27 11:52:47;;;;;;;13.43;11.13;;;;;;;;;;5077495;28;20820;-65
2021/01/27 11:55:12;;;;;;;16.57;12.00;;;;;;;;;;5049862;28;20468;-65
2021/01/27 11:57:44;;;;;;;15.67;12.20;;;;;;;;;;5044548;28;20479;-66
2021/01/27 12:00:12;;;;;;;15.60;9.70;;;;;;;;;;5058013;28;20263;-64
2021/01/27 12:02:37;;;;;;;12.93;11.37;;;;;;;;;;5038313;28;20460;-65
2021/01/27 12:05:03;;;;;;;16.33;11.00;;;;;;;;;;5038438;28;20466;-64
2021/01/27 12:07:28;;;;;;;13.90;11.40;;;;;;;;;;5030664;28;20224;-64
2021/01/27 12:09:53;;;;;;;17.10;11.73;;;;;;;;;;5037022;28;20240;-65
2021/01/27 12:12:18;;;;;;;14.07;11.40;;;;;;;;;;5038005;28;20283;-65
2021/01/27 12:14:44;;;;;;;18.00;11.40;;;;;;;;;;5037751;28;20218;-65
2021/01/27 12:17:09;;;;;;;17.87;10.80;;;;;;;;;;5049731;28;20324;-64
2021/01/27 12:19:34;;;;;;;15.27;11.23;;;;;;;;;;5043702;28;20236;-65
2021/01/27 12:21:59;;;;;;;18.07;11.90;;;;;;;;;;5045961;28;20623;-65
2021/01/27 12:24:25;;;;;;;14.50;11.07;;;;;;;;;;5051000;28;20308;-65
2021/01/27 12:26:50;;;;;;;16.10;11.47;;;;;;;;;;5048599;28;20271;-65
2021/01/27 12:29:16;;;;;;;14.17;10.20;;;;;;;;;;5044054;28;20226;-65
2021/01/27 12:31:42;;;;;;;11.30;9.70;;;;;;;;;;5045892;28;20215;-64
2021/01/27 12:34:08;;;;;;;11.70;10.50;;;;;;;;;;5040994;28;20228;-65
2021/01/27 12:36:33;;;;;;;15.57;12.30;;;;;;;;;;5045575;28;20462;-64
2021/01/27 12:38:58;;;;;;;18.03;11.73;;;;;;;;;;5049302;28;20226;-64
2021/01/27 12:41:24;;;;;;;12.17;10.70;;;;;;;;;;5029349;28;20680;-64
2021/01/27 12:43:50;;;;;;;14.03;10.90;;;;;;;;;;5043349;28;20296;-64
2021/01/27 12:46:15;;;;;;;13.83;10.10;;;;;;;;;;5039978;28;20225;-65
2021/01/27 12:48:41;;;;;;;13.80;9.30;;;;;;;;;;5050122;28;20460;-65
2021/01/27 12:51:06;;;;;;;11.70;9.80;;;;;;;;;;5046575;28;20327;-64
2021/01/27 12:53:31;;;;;;;17.23;13.30;;;;;;;;;;5039411;28;20245;-65
2021/01/27 12:55:57;;;;;;;11.30;9.07;;;;;;;;;;5046997;28;20301;-64
2021/01/27 12:58:22;;;;;;;14.47;11.40;;;;;;;;;;5043417;28;20681;-65
2021/01/27 13:00:48;;;;;;;10.23;8.13;;;;;;;;;;5043225;28;20221;-65
2021/01/27 13:03:13;;;;;;;10.80;8.70;;;;;;;;;;5051632;28;22700;-65
2021/01/27 13:05:39;;;;;;;9.00;7.30;;;;;;;;;;5056028;28;20479;-65
2021/01/27 13:08:05;;;;;;;10.80;7.70;;;;;;;;;;5040158;28;20622;-64
2021/01/27 13:10:30;;;;;;;11.30;8.10;;;;;;;;;;5042963;28;20332;-64
2021/01/27 13:12:56;;;;;;;11.00;7.77;;;;;;;;;;5037215;28;20222;-65
2021/01/27 13:15:22;;;;;;;9.10;6.40;;;;;;;;;;5037587;28;20234;-65
2021/01/27 13:17:49;;;;;;;9.23;6.90;;;;;;;;;;5039380;28;20220;-64
2021/01/27 13:20:16;;;;;;;8.37;7.13;;;;;;;;;;5043000;28;20537;-64
2021/01/27 13:22:42;;;;;;;11.80;6.83;;;;;;;;;;5037249;28;21013;-64
2021/01/27 13:25:11;;;;;;;10.10;7.80;;;;;;;;;;5036927;28;20490;-65
2021/01/27 13:27:37;;;;;;;12.07;8.83;;;;;;;;;;5050003;28;20253;-64
2021/01/27 13:30:03;;;;;;;12.33;9.70;;;;;;;;;;5046236;28;20491;-64
2021/01/27 13:32:28;;;;;;;15.33;8.63;;;;;;;;;;5042346;28;20223;-64
2021/01/27 13:34:54;;;;;;;9.13;8.10;;;;;;;;;;5045316;28;20463;-65
2021/01/27 13:37:19;;;;;;;9.97;7.63;;;;;;;;;;5049601;28;20287;-64
2021/01/27 13:39:44;;;;;;;8.57;7.77;;;;;;;;;;5037100;28;20321;-65
2021/01/27 13:42:11;;;;;;;10.33;9.17;;;;;;;;;;5048809;28;20239;-65
2021/01/27 13:44:36;;;;;;;11.43;9.10;;;;;;;;;;5041884;28;20224;-66
2021/01/27 13:47:02;;;;;;;10.70;8.93;;;;;;;;;;5048866;28;20472;-65
2021/01/27 13:49:27;;;;;;;10.00;8.57;;;;;;;;;;5045166;28;20293;-65
2021/01/27 13:51:53;;;;;;;14.27;10.20;;;;;;;;;;5042021;28;20983;-64
2021/01/27 13:54:18;;;;;;;11.50;9.60;;;;;;;;;;5046356;28;20302;-65
2021/01/27 13:56:43;;;;;;;12.53;9.17;;;;;;;;;;5047980;28;20233;-65
2021/01/27 13:59:08;;;;;;;15.73;9.87;;;;;;;;;;5042046;28;20312;-64
2021/01/27 14:01:34;;;;;;;11.57;10.37;;;;;;;;;;5040602;28;20232;-64
2021/01/27 14:03:59;;;;;;;12.73;10.60;;;;;;;;;;5045835;28;20560;-65
2021/01/27 14:06:24;;;;;;;15.60;11.80;;;;;;;;;;5047642;28;20229;-64
2021/01/27 14:08:50;;;;;;;11.63;10.00;;;;;;;;;;5042704;28;20652;-65
2021/01/27 14:11:15;;;;;;;15.20;12.30;;;;;;;;;;5040273;28;20295;-64
2021/01/27 14:13:40;;;;;;;12.80;10.67;;;;;;;;;;5046036;28;20221;-65
2021/01/27 14:16:06;;;;;;;12.63;11.07;;;;;;;;;;5035845;28;20239;-64
2021/01/27 14:18:31;;;;;;;11.10;10.00;;;;;;;;;;5045548;28;20221;-65
2021/01/27 14:20:57;;;;;;;15.67;11.73;;;;;;;;;;5047301;28;20551;-66
2021/01/27 14:23:22;;;;;;;11.47;9.30;;;;;;;;;;5043512;28;20310;-65
2021/01/27 14:25:47;;;;;;;10.67;8.93;;;;;;;;;;5040973;28;20294;-64
2021/01/27 14:28:12;;;;;;;14.10;11.07;;;;;;;;;;5045770;28;20655;-65
2021/01/27 14:30:40;;;;;;;11.10;9.67;;;;;;;;;;5047942;28;20228;-65
2021/01/27 14:33:06;;;;;;;11.60;9.90;;;;;;;;;;5042394;28;20305;-65
2021/01/27 14:35:32;;;;;;;11.77;9.83;;;;;;;;;;5042957;28;20895;-65
2021/01/27 14:37:57;;;;;;;10.87;9.77;;;;;;;;;;5048661;28;20304;-64
2021/01/27 14:40:23;;;;;;;13.63;9.10;;;;;;;;;;5051238;28;20527;-64
2021/01/27 14:42:49;;;;;;;12.87;10.40;;;;;;;;;;5038073;28;20637;-65
2021/01/27 14:45:15;;;;;;;10.40;9.17;;;;;;;;;;5044304;28;20466;-64
2021/01/27 14:47:40;;;;;;;11.13;9.90;;;;;;;;;;5043678;28;20682;-64
2021/01/27 14:50:07;;;;;;;12.80;11.50;;;;;;;;;;5036367;28;20513;-63